Time;durP1;ratioP1;P1;durP2;ratioP2;P2;SDS_P1;SDS_P2;PMS_P1;PMS_P2;Temp;Humidity;BMP_temperature;BMP_pressure;BME280_temperature;BME280_humidity;BME280_pressure;Samples;Min_cycle;Max_cycle;Signal;HPM_P1;HPM_P2
2023/05/16 00:04:58;;;;;;;15.60;10.93;;;;;;;9.59;100.00;95999.84;10411346;28;20231;-67
2023/05/16 00:09:59;;;;;;;13.63;10.23;;;;;;;9.55;100.00;96004.56;10410805;28;20289;-67
2023/05/16 00:15:00;;;;;;;13.90;10.83;;;;;;;9.53;100.00;96003.13;10411102;28;20220;-67
2023/05/16 00:20:09;;;;;;;15.23;11.33;;;;;;;9.46;100.00;96016.88;10410570;28;20239;-67
2023/05/16 00:25:10;;;;;;;14.43;11.57;;;;;;;9.45;100.00;96017.03;10410691;28;20232;-67
2023/05/16 00:30:11;;;;;;;15.00;12.47;;;;;;;9.28;100.00;96016.25;10410650;28;20205;-67
2023/05/16 00:35:11;;;;;;;16.47;12.43;;;;;;;9.18;100.00;96015.59;10410517;28;20556;-67
2023/05/16 00:40:11;;;;;;;14.07;12.23;;;;;;;8.95;100.00;96021.47;10408947;28;20211;-67
2023/05/16 00:45:12;;;;;;;16.77;11.70;;;;;;;8.82;100.00;96031.59;10410574;28;20221;-67
2023/05/16 00:50:12;;;;;;;16.20;12.00;;;;;;;8.68;100.00;96040.88;10409817;28;20244;-67
2023/05/16 00:55:13;;;;;;;14.47;11.80;;;;;;;8.59;100.00;96042.69;10409032;28;20193;-67
2023/05/16 01:00:14;;;;;;;14.00;11.53;;;;;;;8.49;100.00;96047.22;10408279;28;20580;-67
2023/05/16 01:05:15;;;;;;;14.50;12.17;;;;;;;8.33;100.00;96048.78;10409568;28;20259;-67
2023/05/16 01:10:15;;;;;;;15.37;12.73;;;;;;;8.27;100.00;96062.47;10415276;28;20315;-67
2023/05/16 01:15:23;;;;;;;18.17;14.10;;;;;;;8.27;100.00;96053.81;10416643;28;20286;-67
2023/05/16 01:20:47;;;;;;;15.73;13.43;;;;;;;8.07;100.00;96063.69;10398402;28;20201;-67
2023/05/16 01:26:15;;;;;;;16.37;12.63;;;;;;;7.98;100.00;96071.47;10416229;28;20259;-67
2023/05/16 01:31:16;;;;;;;19.40;13.83;;;;;;;7.92;100.00;96072.09;10414177;28;20229;-67
2023/05/16 01:36:43;;;;;;;18.40;14.07;;;;;;;7.82;100.00;96072.19;10416317;28;20185;-67
2023/05/16 01:42:00;;;;;;;17.67;13.27;;;;;;;7.65;100.00;96079.13;10414506;28;20204;-67
2023/05/16 01:47:03;;;;;;;22.97;14.00;;;;;;;7.84;100.00;96070.28;10414500;28;20258;-68
2023/05/16 01:52:08;;;;;;;17.47;15.57;;;;;;;7.88;100.00;96077.78;10413262;28;20229;-67
2023/05/16 01:57:09;;;;;;;21.00;15.60;;;;;;;8.15;100.00;96082.78;10412055;28;20562;-67
2023/05/16 02:02:09;;;;;;;22.47;14.83;;;;;;;8.41;100.00;96089.75;10411470;28;20188;-67
2023/05/16 02:07:13;;;;;;;20.43;15.43;;;;;;;8.53;100.00;96085.06;10411794;28;20248;-68
2023/05/16 02:12:14;;;;;;;21.20;16.13;;;;;;;8.75;100.00;96088.88;10412481;28;20185;-68
2023/05/16 02:17:14;;;;;;;22.13;16.67;;;;;;;8.93;100.00;96080.91;10410040;28;20646;-67
2023/05/16 02:22:16;;;;;;;19.47;15.60;;;;;;;9.08;100.00;96078.44;10411267;28;20268;-68
2023/05/16 02:27:16;;;;;;;21.03;15.07;;;;;;;9.20;100.00;96086.78;10412188;28;20812;-68
2023/05/16 02:32:17;;;;;;;20.97;15.17;;;;;;;9.27;100.00;96080.75;10412128;28;20631;-68
2023/05/16 02:37:18;;;;;;;18.27;16.37;;;;;;;9.25;100.00;96082.72;10411689;28;20221;-68
2023/05/16 02:42:18;;;;;;;20.10;15.97;;;;;;;9.49;100.00;96088.91;10411802;28;20231;-68
2023/05/16 02:47:19;;;;;;;17.38;15.55;;;;;;;9.52;100.00;96093.81;10369129;28;986483;-68
2023/05/16 02:52:19;;;;;;;21.03;16.47;;;;;;;9.56;100.00;96097.72;10372326;28;20276;-68
2023/05/16 02:57:20;;;;;;;21.10;15.60;;;;;;;9.66;100.00;96108.00;10372051;28;20209;-68
2023/05/16 03:02:20;;;;;;;23.83;16.93;;;;;;;9.53;100.00;96105.09;10376256;28;20319;-68
2023/05/16 03:07:21;;;;;;;16.03;14.30;;;;;;;9.69;100.00;96110.28;10411603;28;20220;-68
2023/05/16 03:12:21;;;;;;;19.27;17.10;;;;;;;9.48;100.00;96121.28;10412858;28;20278;-67
2023/05/16 03:17:22;;;;;;;22.27;17.30;;;;;;;9.41;100.00;96123.72;10412749;28;20241;-68
2023/05/16 03:22:22;;;;;;;22.67;16.13;;;;;;;9.49;100.00;96127.31;10412529;28;20203;-68
2023/05/16 03:27:23;;;;;;;27.63;17.10;;;;;;;9.57;100.00;96129.91;10412164;28;20224;-67
2023/05/16 03:32:23;;;;;;;24.80;18.50;;;;;;;9.50;100.00;96132.38;10411773;28;20287;-67
2023/05/16 03:37:24;;;;;;;23.30;18.03;;;;;;;9.61;100.00;96137.25;10411808;28;20825;-68
2023/05/16 03:42:25;;;;;;;25.73;18.73;;;;;;;9.45;100.00;96140.72;10410551;28;20287;-68
2023/05/16 03:47:29;;;;;;;22.83;19.93;;;;;;;9.44;100.00;96140.88;10411268;28;20763;-68
2023/05/16 03:52:29;;;;;;;27.83;20.00;;;;;;;9.48;100.00;96143.97;10411348;28;20197;-68
2023/05/16 03:57:31;;;;;;;22.30;18.37;;;;;;;9.61;100.00;96152.97;10411342;28;20370;-67
2023/05/16 04:02:31;;;;;;;24.20;19.60;;;;;;;9.57;100.00;96149.06;10411027;28;20319;-68
2023/05/16 04:07:31;;;;;;;23.87;19.37;;;;;;;9.61;100.00;96166.03;10411032;28;20779;-68
2023/05/16 04:12:32;;;;;;;27.27;20.80;;;;;;;9.53;100.00;96168.66;10410755;28;20678;-68
2023/05/16 04:17:33;;;;;;;24.17;19.50;;;;;;;9.69;100.00;96177.47;10410932;28;20204;-68
2023/05/16 04:22:33;;;;;;;29.50;21.83;;;;;;;9.68;100.00;96183.69;10410582;28;20192;-68
2023/05/16 04:27:33;;;;;;;27.77;19.73;;;;;;;9.58;100.00;96192.50;10410699;28;20314;-68
2023/05/16 04:32:35;;;;;;;25.20;19.93;;;;;;;9.57;100.00;96190.06;10410591;28;20235;-68
2023/05/16 04:37:36;;;;;;;27.77;21.90;;;;;;;9.52;100.00;96187.94;10410540;28;20216;-68
2023/05/16 04:42:37;;;;;;;27.40;21.23;;;;;;;9.71;100.00;96194.66;10413994;28;20204;-68
2023/05/16 04:47:37;;;;;;;28.30;21.63;;;;;;;9.64;100.00;96191.06;10417178;28;20232;-68
2023/05/16 04:52:38;;;;;;;30.27;21.90;;;;;;;9.74;100.00;96196.09;10417846;28;20216;-68
2023/05/16 04:57:38;;;;;;;26.03;21.33;;;;;;;9.78;100.00;96207.88;10417622;28;20209;-68
2023/05/16 05:02:39;;;;;;;26.47;21.13;;;;;;;9.45;100.00;96206.06;10417696;28;20201;-68
2023/05/16 05:07:39;;;;;;;26.27;21.33;;;;;;;9.67;100.00;96216.88;10417048;28;20801;-68
2023/05/16 05:12:40;;;;;;;27.63;22.23;;;;;;;9.80;100.00;96221.59;10417134;28;20184;-68
2023/05/16 05:17:40;;;;;;;26.80;20.77;;;;;;;9.78;100.00;96224.38;10416617;28;20282;-67
2023/05/16 05:22:40;;;;;;;27.93;20.10;;;;;;;9.43;100.00;96222.91;10416783;28;20196;-67
2023/05/16 05:27:41;;;;;;;23.40;18.47;;;;;;;9.68;100.00;96215.06;10416351;28;20316;-68
2023/05/16 05:32:41;;;;;;;24.63;19.53;;;;;;;9.81;100.00;96210.97;10416133;28;20200;-68
2023/05/16 05:37:41;;;;;;;22.53;17.40;;;;;;;10.07;100.00;96206.56;10416204;28;20215;-68
2023/05/16 05:42:42;;;;;;;20.45;15.35;;;;;;;10.06;100.00;96223.25;10415674;28;20275;-68
2023/05/16 05:47:42;;;;;;;25.20;16.70;;;;;;;9.93;100.00;96235.03;10430613;23;20737;-65
2023/05/16 05:52:42;;;;;;;23.08;15.70;;;;;;;10.33;100.00;96212.41;10410856;28;20270;-65
2023/05/16 05:57:43;;;;;;;22.90;17.75;;;;;;;10.14;100.00;96225.84;10415325;28;20677;-66
2023/05/16 06:02:43;;;;;;;22.13;18.13;;;;;;;10.23;100.00;96229.25;10415319;28;20555;-66
2023/05/16 06:07:44;;;;;;;23.87;18.03;;;;;;;10.31;100.00;96235.31;10414833;28;20609;-65
2023/05/16 06:12:44;;;;;;;22.85;19.15;;;;;;;10.34;100.00;96242.06;10414899;28;20205;-65
2023/05/16 06:17:44;;;;;;;24.80;20.13;;;;;;;10.17;100.00;96249.09;10414393;28;20275;-66
2023/05/16 06:22:45;;;;;;;27.75;23.02;;;;;;;10.17;100.00;96259.56;10414399;28;20276;-66
2023/05/16 06:27:45;;;;;;;29.75;22.55;;;;;;;10.08;100.00;96257.94;10414055;28;20274;-65
2023/05/16 06:32:45;;;;;;;33.67;26.43;;;;;;;9.64;100.00;96278.16;10413884;28;20196;-65
2023/05/16 06:37:46;;;;;;;36.50;26.77;;;;;;;9.79;100.00;96273.13;10414040;28;20193;-65
2023/05/16 06:42:46;;;;;;;35.47;26.03;;;;;;;9.99;100.00;96264.97;10413458;28;20194;-65
2023/05/16 06:47:47;;;;;;;30.43;23.87;;;;;;;10.01;100.00;96276.06;10412889;28;20228;-65
2023/05/16 06:52:47;;;;;;;32.73;24.37;;;;;;;9.40;100.00;96285.97;10413288;28;20342;-65
2023/05/16 06:57:47;;;;;;;33.20;25.27;;;;;;;9.37;100.00;96297.56;10413057;28;20551;-65
2023/05/16 07:02:48;;;;;;;36.13;26.23;;;;;;;9.13;100.00;96310.53;10412719;28;20227;-65
2023/05/16 07:07:48;;;;;;;39.93;28.73;;;;;;;9.07;100.00;96307.59;10412042;28;20212;-65
2023/05/16 07:12:48;;;;;;;50.63;33.07;;;;;;;8.71;100.00;96309.53;10412204;28;20254;-65
2023/05/16 07:17:49;;;;;;;43.10;32.00;;;;;;;8.91;100.00;96302.28;10412192;28;20566;-65
2023/05/16 07:22:50;;;;;;;43.60;31.87;;;;;;;9.10;100.00;96299.44;10412128;28;20196;-65
2023/05/16 07:27:50;;;;;;;44.77;33.40;;;;;;;9.19;100.00;96304.69;10411825;28;20228;-66
2023/05/16 07:32:50;;;;;;;50.57;33.27;;;;;;;9.42;100.00;96304.94;10411787;28;20200;-65
2023/05/16 07:37:51;;;;;;;39.37;31.00;;;;;;;9.42;100.00;96307.56;10411475;28;20232;-65
2023/05/16 07:42:51;;;;;;;42.00;29.77;;;;;;;9.88;100.00;96299.31;10411506;28;20195;-66
2023/05/16 07:47:52;;;;;;;40.43;30.37;;;;;;;9.66;100.00;96295.50;10410981;28;20713;-66
2023/05/16 07:52:52;;;;;;;41.10;28.67;;;;;;;9.60;100.00;96315.25;10411353;28;20569;-65
2023/05/16 07:57:52;;;;;;;42.17;29.40;;;;;;;9.50;100.00;96318.03;10411319;28;20254;-66
2023/05/16 08:02:53;;;;;;;44.87;29.20;;;;;;;9.54;100.00;96327.19;10410862;28;20192;-66
2023/05/16 08:07:53;;;;;;;39.00;27.67;;;;;;;9.76;100.00;96320.53;10411054;28;20224;-66
2023/05/16 08:12:54;;;;;;;37.20;28.17;;;;;;;9.44;100.00;96339.56;10410605;28;20192;-66
2023/05/16 08:17:57;;;;;;;34.87;27.17;;;;;;;9.41;100.00;96345.94;10417100;28;20265;-66
2023/05/16 08:22:58;;;;;;;36.03;26.70;;;;;;;9.09;100.00;96352.66;10419006;28;20199;-66
2023/05/16 08:28:00;;;;;;;37.03;26.63;;;;;;;9.02;100.00;96362.13;10418820;28;20220;-66
2023/05/16 08:33:03;;;;;;;34.20;25.97;;;;;;;9.40;100.00;96375.69;10418790;28;20277;-65
2023/05/16 08:38:04;;;;;;;36.40;25.10;;;;;;;9.54;100.00;96363.81;10418355;28;20694;-66
2023/05/16 08:43:04;;;;;;;42.00;28.60;;;;;;;8.87;100.00;96380.16;10418363;28;20192;-65
2023/05/16 08:48:06;;;;;;;36.90;25.97;;;;;;;9.10;100.00;96384.84;10416475;28;20236;-66
2023/05/16 08:53:07;;;;;;;30.83;24.20;;;;;;;9.37;100.00;96376.00;10417971;28;20271;-66
2023/05/16 08:58:08;;;;;;;31.47;23.60;;;;;;;9.04;100.00;96388.91;10416754;28;20236;-66
2023/05/16 09:03:08;;;;;;;29.53;22.53;;;;;;;8.62;100.00;96400.06;10417464;28;20184;-66
2023/05/16 09:08:08;;;;;;;33.27;24.23;;;;;;;7.85;100.00;96403.06;10417589;28;20227;-67
2023/05/16 09:13:09;;;;;;;31.80;22.03;;;;;;;8.37;100.00;96414.66;10415718;28;20197;-66
2023/05/16 09:18:11;;;;;;;32.90;23.50;;;;;;;7.84;100.00;96419.72;10417139;28;20212;-66
2023/05/16 09:23:12;;;;;;;30.33;21.20;;;;;;;8.37;100.00;96425.09;10416850;28;20282;-66
2023/05/16 09:28:13;;;;;;;28.77;21.77;;;;;;;8.48;100.00;96442.34;10414612;28;20269;-67
2023/05/16 09:33:13;;;;;;;30.67;20.33;;;;;;;8.60;100.00;96461.22;10416665;28;20551;-66
2023/05/16 09:38:15;;;;;;;22.67;17.63;;;;;;;8.83;100.00;96436.28;10416080;28;20205;-66
2023/05/16 09:43:16;;;;;;;19.80;15.97;;;;;;;9.08;100.00;96437.28;10416409;28;20196;-66
2023/05/16 09:48:17;;;;;;;19.30;15.57;;;;;;;8.88;100.00;96438.41;10415378;28;20228;-66
2023/05/16 09:53:26;;;;;;;23.60;15.87;;;;;;;9.28;100.00;96444.91;10415593;28;20687;-66
2023/05/16 09:58:31;;;;;;;19.47;14.93;;;;;;;9.34;100.00;96446.06;10414415;28;20217;-66
2023/05/16 10:03:33;;;;;;;16.60;14.07;;;;;;;9.18;100.00;96455.44;10415257;28;20196;-66
2023/05/16 10:08:35;;;;;;;17.13;14.80;;;;;;;9.22;100.00;96451.56;10415015;28;20220;-66
2023/05/16 10:13:36;;;;;;;19.27;13.97;;;;;;;8.96;100.00;96450.72;10415047;28;20202;-66
2023/05/16 10:18:37;;;;;;;18.90;15.27;;;;;;;8.76;100.00;96461.38;10414810;28;20549;-67
2023/05/16 10:23:40;;;;;;;18.17;14.87;;;;;;;8.92;100.00;96464.09;10414638;28;20227;-66
2023/05/16 10:28:41;;;;;;;17.93;14.60;;;;;;;9.12;100.00;96457.88;10413156;28;20228;-66
2023/05/16 10:33:42;;;;;;;19.03;13.23;;;;;;;9.24;100.00;96438.34;10414217;28;20192;-66
2023/05/16 10:38:44;;;;;;;16.10;12.80;;;;;;;9.09;100.00;96432.84;10413500;28;20258;-66
2023/05/16 10:43:55;;;;;;;15.87;12.10;;;;;;;9.39;100.00;96435.97;10421216;28;20224;-67
2023/05/16 10:48:55;;;;;;;13.43;10.73;;;;;;;9.59;100.00;96423.47;10427826;28;20245;-67
2023/05/16 10:54:07;;;;;;;14.70;11.60;;;;;;;9.62;100.00;96438.84;10420576;28;20204;-66
2023/05/16 10:59:24;;;;;;;14.47;10.83;;;;;;;9.53;100.00;96440.59;10413424;28;20670;-66
2023/05/16 11:04:44;;;;;;;12.77;9.80;;;;;;;10.02;100.00;96434.72;10572833;27;20973;-64
2023/05/16 11:09:45;;;;;;;16.17;11.10;;;;;;;9.98;100.00;96449.94;10572191;28;20308;-66
2023/05/16 11:14:50;;;;;;;12.60;10.18;;;;;;;10.33;100.00;96427.13;10568956;28;20204;-66
2023/05/16 11:19:55;;;;;;;12.10;9.50;;;;;;;10.34;100.00;96425.34;10571630;28;20300;-66
2023/05/16 11:25:01;;;;;;;14.93;9.43;;;;;;;10.34;100.00;96414.88;10571960;28;20267;-65
2023/05/16 11:30:04;;;;;;;10.47;9.37;;;;;;;9.87;100.00;96420.63;10571610;28;20285;-65
2023/05/16 11:35:07;;;;;;;11.63;9.47;;;;;;;9.84;100.00;96429.59;10571125;28;20556;-66
2023/05/16 11:40:10;;;;;;;12.53;8.83;;;;;;;9.90;100.00;96420.31;10571184;28;20218;-65
2023/05/16 11:45:17;;;;;;;10.23;7.60;;;;;;;10.67;100.00;96405.22;10570753;28;20198;-66
2023/05/16 11:50:22;;;;;;;9.80;8.00;;;;;;;11.03;96.83;96389.09;10518339;22;20257;-62
2023/05/16 11:55:26;;;;;;;11.18;6.53;;;;;;;11.31;93.11;96378.22;10402494;28;20231;-62
2023/05/16 12:00:27;;;;;;;7.60;6.20;;;;;;;11.41;92.00;96373.59;10403767;28;20267;-62
2023/05/16 12:05:29;;;;;;;8.05;6.30;;;;;;;10.85;94.22;96380.63;10403531;28;20235;-62
2023/05/16 12:10:30;;;;;;;7.78;6.45;;;;;;;10.61;95.25;96391.94;10403306;28;20221;-62
2023/05/16 12:15:31;;;;;;;10.18;6.20;;;;;;;10.82;95.38;96399.31;10378075;28;20193;-62
2023/05/16 12:20:31;;;;;;;8.00;5.97;;;;;;;10.90;94.43;96415.00;10375657;28;20260;-61
2023/05/16 12:25:34;;;;;;;8.85;5.80;;;;;;;10.95;91.83;96397.00;10375603;28;20204;-62
2023/05/16 12:30:35;;;;;;;8.55;6.13;;;;;;;10.93;92.08;96404.19;10375327;28;20687;-62
2023/05/16 12:35:38;;;;;;;8.43;5.97;;;;;;;11.19;90.29;96392.66;10375309;28;20204;-62
2023/05/16 12:40:41;;;;;;;11.40;5.82;;;;;;;11.00;91.83;96422.72;10374714;28;20232;-62
2023/05/16 12:45:48;;;;;;;8.50;5.53;;;;;;;11.05;93.63;96423.81;10374785;28;20676;-61
2023/05/16 12:50:49;;;;;;;9.75;6.25;;;;;;;10.61;93.12;96421.59;10374605;28;20247;-62
2023/05/16 12:55:50;;;;;;;8.88;6.20;;;;;;;10.81;93.69;96434.34;10374086;28;20572;-62
2023/05/16 13:00:50;;;;;;;9.40;6.13;;;;;;;10.92;94.72;96446.28;10374216;28;20316;-62
2023/05/16 13:05:51;;;;;;;8.25;5.78;;;;;;;11.33;93.16;96444.44;10373960;28;20602;-63
2023/05/16 13:10:52;;;;;;;11.48;8.50;;;;;;;11.20;95.80;96463.28;10373588;28;20303;-63
2023/05/16 13:15:52;;;;;;;7.32;5.93;;;;;;;10.84;92.68;96434.84;10373764;28;20260;-62
2023/05/16 13:20:53;;;;;;;8.30;6.05;;;;;;;11.28;94.29;96454.59;10373110;28;20229;-62
2023/05/16 13:25:53;;;;;;;16.38;8.50;;;;;;;11.71;90.92;96442.00;10372303;28;20225;-63
2023/05/16 13:30:54;;;;;;;15.88;8.82;;;;;;;11.78;91.25;96450.84;10371448;28;20695;-63
2023/05/16 13:35:55;;;;;;;12.82;8.32;;;;;;;11.77;91.05;96441.31;10373020;28;20288;-63
2023/05/16 13:40:55;;;;;;;24.35;16.27;;;;;;;11.84;90.42;96438.00;10372449;28;20221;-62
2023/05/16 13:45:56;;;;;;;9.32;6.53;;;;;;;11.28;94.44;96454.59;10372950;28;20181;-62
2023/05/16 13:50:56;;;;;;;8.73;7.03;;;;;;;11.19;93.45;96450.34;10372005;28;20267;-63
2023/05/16 13:55:56;;;;;;;9.63;5.82;;;;;;;10.99;97.85;96470.84;10370649;28;20197;-62
2023/05/16 14:00:57;;;;;;;6.88;5.32;;;;;;;10.43;100.00;96474.13;10367823;28;20239;-63
2023/05/16 14:05:57;;;;;;;7.43;4.97;;;;;;;10.13;100.00;96476.31;10370680;28;20279;-63
2023/05/16 14:10:57;;;;;;;15.47;5.30;;;;;;;10.05;100.00;96478.09;10371550;28;20214;-63
2023/05/16 14:15:58;;;;;;;8.50;5.70;;;;;;;10.02;100.00;96467.94;10371333;28;20204;-63
2023/05/16 14:20:58;;;;;;;8.07;5.37;;;;;;;9.62;100.00;96476.28;10371228;28;20311;-63
2023/05/16 14:25:58;;;;;;;8.10;5.00;;;;;;;9.85;100.00;96480.97;10370956;28;20200;-63
2023/05/16 14:31:00;;;;;;;9.43;5.57;;;;;;;9.86;100.00;96474.72;10370900;28;20205;-63
2023/05/16 14:36:00;;;;;;;10.13;4.80;;;;;;;9.87;100.00;96476.38;10370672;28;20201;-63
2023/05/16 14:41:01;;;;;;;22.30;16.20;;;;;;;9.90;100.00;96489.16;10370420;28;20703;-62
2023/05/16 14:46:01;;;;;;;10.93;5.55;;;;;;;9.78;100.00;96504.28;10370438;28;20182;-63
2023/05/16 14:51:03;;;;;;;6.20;4.67;;;;;;;9.82;100.00;96510.06;10369984;28;20738;-63
2023/05/16 14:56:04;;;;;;;15.60;5.37;;;;;;;9.97;100.00;96518.13;10370401;28;20186;-63
2023/05/16 15:01:04;;;;;;;11.50;4.97;;;;;;;9.91;100.00;96516.16;10369824;28;20229;-63
2023/05/16 15:06:06;;;;;;;12.55;4.72;;;;;;;9.99;100.00;96532.69;10370183;28;20212;-62
2023/05/16 15:11:06;;;;;;;15.88;5.32;;;;;;;9.79;100.00;96531.28;10369821;28;20213;-63
2023/05/16 15:16:07;;;;;;;9.37;5.03;;;;;;;9.91;100.00;96524.00;10369724;28;20193;-64
2023/05/16 15:21:07;;;;;;;13.15;5.30;;;;;;;9.68;100.00;96513.25;10369608;28;20247;-63
2023/05/16 15:26:08;;;;;;;17.53;5.33;;;;;;;9.88;100.00;96491.13;10369231;28;20223;-63
2023/05/16 15:31:08;;;;;;;15.53;6.93;;;;;;;9.68;100.00;96513.25;10369306;28;20299;-63
2023/05/16 15:36:08;;;;;;;12.73;5.43;;;;;;;9.79;100.00;96510.38;10369272;28;20201;-63
2023/05/16 15:41:09;;;;;;;17.95;6.97;;;;;;;10.05;99.32;96499.03;10369030;28;20311;-63
2023/05/16 15:46:10;;;;;;;8.23;4.50;;;;;;;10.24;95.24;96477.00;10369062;28;20205;-63
2023/05/16 15:51:11;;;;;;;11.27;4.68;;;;;;;10.33;95.57;96492.56;10375880;28;20241;-63
2023/05/16 15:56:11;;;;;;;6.65;3.80;;;;;;;10.30;94.50;96489.44;10376799;28;20197;-63
2023/05/16 16:01:12;;;;;;;9.95;4.10;;;;;;;9.97;93.51;96481.50;10376062;28;20279;-63
2023/05/16 16:06:12;;;;;;;8.85;3.88;;;;;;;10.09;93.03;96468.94;10376219;28;20202;-62
2023/05/16 16:11:12;;;;;;;9.48;4.03;;;;;;;10.30;93.05;96473.72;10375894;28;20205;-62
2023/05/16 16:16:14;;;;;;;11.27;3.95;;;;;;;10.47;91.41;96457.09;10375856;28;20663;-62
2023/05/16 16:21:14;;;;;;;10.75;3.72;;;;;;;10.84;90.96;96465.44;10375702;28;20221;-63
2023/05/16 16:26:16;;;;;;;9.10;3.53;;;;;;;10.74;89.73;96462.19;10375181;28;20553;-63
2023/05/16 16:31:16;;;;;;;9.88;3.08;;;;;;;11.07;86.88;96442.00;10375559;28;20193;-63
2023/05/16 16:36:17;;;;;;;8.32;2.92;;;;;;;11.05;85.51;96438.75;10374955;28;20197;-62
2023/05/16 16:41:17;;;;;;;12.70;4.65;;;;;;;11.36;84.96;96451.13;10373434;28;20221;-62
2023/05/16 16:46:18;;;;;;;15.88;5.00;;;;;;;11.39;85.78;96470.00;10374644;28;20268;-63
2023/05/16 16:51:18;;;;;;;13.15;4.05;;;;;;;11.62;83.69;96455.31;10373680;28;20328;-62
2023/05/16 16:56:18;;;;;;;9.85;2.80;;;;;;;11.68;81.44;96439.72;10373762;28;20198;-63
2023/05/16 17:01:19;;;;;;;7.57;2.42;;;;;;;11.68;79.97;96444.97;10373162;28;20248;-63
2023/05/16 17:06:19;;;;;;;13.32;2.63;;;;;;;11.30;80.65;96452.66;10373540;28;20189;-63
2023/05/16 17:11:22;;;;;;;9.43;2.45;;;;;;;11.20;81.22;96472.97;10373108;28;20268;-62
2023/05/16 17:16:22;;;;;;;13.68;2.45;;;;;;;11.17;80.53;96460.19;10372992;28;20212;-62
2023/05/16 17:21:22;;;;;;;11.80;2.80;;;;;;;11.26;81.43;96467.06;10373298;28;20586;-63
2023/05/16 17:26:23;;;;;;;14.82;2.90;;;;;;;11.37;81.43;96464.06;10372578;28;20676;-63
2023/05/16 17:31:23;;;;;;;9.57;2.58;;;;;;;11.52;81.57;96471.28;10373645;28;20221;-63
2023/05/16 17:36:24;;;;;;;9.88;2.60;;;;;;;11.31;81.40;96467.38;10372372;28;20613;-64
2023/05/16 17:41:25;;;;;;;15.77;3.53;;;;;;;11.05;82.29;96478.06;10371944;28;20711;-63
2023/05/16 17:46:25;;;;;;;8.02;2.25;;;;;;;10.95;82.82;96483.47;10371849;28;20263;-64
2023/05/16 17:51:25;;;;;;;9.30;2.22;;;;;;;10.92;82.02;96478.56;10382206;23;20249;-67
2023/05/16 17:56:26;;;;;;;9.32;2.28;;;;;;;10.87;82.26;96493.94;10370901;28;20200;-67
2023/05/16 18:01:26;;;;;;;11.75;2.85;;;;;;;10.93;83.64;96506.41;10371298;28;20244;-67
2023/05/16 18:06:27;;;;;;;16.52;2.95;;;;;;;10.96;83.00;96482.47;10371286;28;20288;-67
2023/05/16 18:11:27;;;;;;;12.63;2.88;;;;;;;10.84;82.67;96495.13;10370479;28;20209;-67
2023/05/16 18:16:30;;;;;;;12.68;2.80;;;;;;;10.92;83.62;96506.56;10371036;28;20197;-66
2023/05/16 18:21:31;;;;;;;9.32;2.95;;;;;;;10.56;85.42;96528.63;10370484;28;20238;-66
2023/05/16 18:26:31;;;;;;;8.82;3.00;;;;;;;10.52;85.52;96516.84;10370772;28;20667;-67
2023/05/16 18:31:32;;;;;;;13.00;3.30;;;;;;;10.38;82.17;96480.81;10370138;28;20221;-67
2023/05/16 18:36:32;;;;;;;7.93;2.50;;;;;;;10.07;81.99;96492.63;10369137;28;20213;-67
2023/05/16 18:41:33;;;;;;;5.55;2.38;;;;;;;9.85;83.21;96517.59;10370134;28;20240;-67
2023/05/16 18:46:33;;;;;;;7.30;2.33;;;;;;;9.50;84.17;96521.97;10368377;28;20217;-66
2023/05/16 18:51:33;;;;;;;7.20;2.17;;;;;;;9.23;85.23;96547.31;10369849;28;20243;-66
2023/05/16 18:56:34;;;;;;;13.13;2.40;;;;;;;8.67;88.25;96571.97;10369650;28;20201;-66
2023/05/16 19:01:34;;;;;;;7.23;2.17;;;;;;;8.36;89.56;96570.47;10369768;28;20248;-66
2023/05/16 19:06:35;;;;;;;10.47;3.10;;;;;;;8.06;91.81;96578.59;10369668;28;20193;-67
2023/05/16 19:11:35;;;;;;;6.77;2.20;;;;;;;7.91;93.05;96579.03;10369418;28;20201;-66
2023/05/16 19:16:35;;;;;;;6.27;2.10;;;;;;;7.78;96.19;96597.63;10370166;28;20193;-66
2023/05/16 19:21:36;;;;;;;11.60;4.27;;;;;;;7.61;93.98;96588.75;10370117;28;20679;-66
2023/05/16 19:26:38;;;;;;;7.10;3.20;;;;;;;7.66;95.40;96610.00;10378201;28;20538;-66
2023/05/16 19:31:38;;;;;;;10.03;2.13;;;;;;;7.49;96.30;96606.31;10377401;28;20220;-66
2023/05/16 19:36:39;;;;;;;9.63;1.60;;;;;;;7.13;96.16;96608.66;10377699;28;20280;-66
2023/05/16 19:41:39;;;;;;;3.20;1.50;;;;;;;7.00;97.34;96610.75;10377199;28;20225;-66
2023/05/16 19:46:40;;;;;;;6.73;1.90;;;;;;;6.72;97.71;96610.59;10376661;28;20232;-66
2023/05/16 19:51:40;;;;;;;3.33;2.00;;;;;;;6.88;99.95;96630.88;10376702;28;20248;-66
2023/05/16 19:56:40;;;;;;;7.70;1.90;;;;;;;6.59;100.00;96631.66;10376904;28;20197;-66
2023/05/16 20:01:41;;;;;;;14.13;2.20;;;;;;;6.19;100.00;96640.28;10376723;28;20593;-66
2023/05/16 20:06:41;;;;;;;7.23;2.07;;;;;;;6.07;100.00;96652.56;10376580;28;20800;-66
2023/05/16 20:11:42;;;;;;;9.10;2.63;;;;;;;6.04;100.00;96650.22;10376207;28;20569;-67
2023/05/16 20:16:42;;;;;;;6.10;1.90;;;;;;;5.76;100.00;96656.88;10376157;28;20684;-67
2023/05/16 20:21:42;;;;;;;6.60;1.97;;;;;;;5.58;100.00;96661.81;10375854;28;20307;-66
2023/05/16 20:26:43;;;;;;;9.03;2.70;;;;;;;5.36;100.00;96665.38;10375824;28;20208;-67
2023/05/16 20:31:43;;;;;;;10.07;2.13;;;;;;;5.27;100.00;96669.53;10375716;28;20205;-67
2023/05/16 20:36:43;;;;;;;10.50;2.20;;;;;;;5.18;100.00;96678.06;10374995;28;20220;-67
2023/05/16 20:41:44;;;;;;;10.40;2.60;;;;;;;5.01;100.00;96671.63;10375016;28;20591;-67
2023/05/16 20:46:45;;;;;;;12.20;2.67;;;;;;;4.86;100.00;96675.47;10374914;28;20626;-67
2023/05/16 20:51:45;;;;;;;9.03;2.40;;;;;;;4.73;100.00;96680.78;10374433;28;20327;-67
2023/05/16 20:56:45;;;;;;;8.97;2.40;;;;;;;4.74;100.00;96682.44;10374965;28;20745;-67
2023/05/16 21:01:46;;;;;;;6.50;2.03;;;;;;;4.78;100.00;96679.47;10374066;28;20727;-67
2023/05/16 21:06:46;;;;;;;9.00;2.20;;;;;;;4.60;100.00;96689.53;10374102;28;20197;-67
2023/05/16 21:11:47;;;;;;;5.83;2.10;;;;;;;4.49;100.00;96699.94;10373911;28;20578;-67
2023/05/16 21:16:47;;;;;;;9.63;1.87;;;;;;;4.46;100.00;96693.19;10373807;28;20573;-67
2023/05/16 21:21:47;;;;;;;5.17;1.80;;;;;;;4.48;100.00;96690.47;10373813;28;20228;-67
2023/05/16 21:26:48;;;;;;;9.63;2.50;;;;;;;4.35;100.00;96701.00;10373355;28;20205;-67
2023/05/16 21:31:48;;;;;;;6.00;1.93;;;;;;;4.16;100.00;96706.75;10373516;28;20213;-67
2023/05/16 21:36:48;;;;;;;8.27;2.80;;;;;;;4.20;100.00;96715.94;10372953;28;20205;-67
2023/05/16 21:41:49;;;;;;;6.20;2.63;;;;;;;4.05;100.00;96717.13;10372756;28;20257;-67
2023/05/16 21:46:49;;;;;;;9.93;2.53;;;;;;;3.89;100.00;96726.03;10371849;28;20208;-66
2023/05/16 21:51:49;;;;;;;10.67;3.30;;;;;;;3.92;100.00;96728.41;10372042;28;20255;-67
2023/05/16 21:56:50;;;;;;;6.87;2.87;;;;;;;3.87;100.00;96725.31;10372653;28;20193;-67
2023/05/16 22:01:50;;;;;;;7.13;2.60;;;;;;;3.80;100.00;96728.47;10371973;28;20231;-67
2023/05/16 22:06:50;;;;;;;7.30;2.40;;;;;;;3.58;100.00;96730.06;10372057;28;20293;-67
2023/05/16 22:11:51;;;;;;;5.97;2.17;;;;;;;3.61;100.00;96729.00;10371443;28;20224;-67
2023/05/16 22:16:51;;;;;;;5.83;2.77;;;;;;;3.48;100.00;96729.91;10371505;28;20219;-67
2023/05/16 22:21:51;;;;;;;4.90;2.40;;;;;;;3.38;100.00;96726.34;10371211;28;20312;-67
2023/05/16 22:26:52;;;;;;;5.17;2.57;;;;;;;3.27;100.00;96739.25;10371320;28;20189;-67
2023/05/16 22:31:52;;;;;;;6.37;2.30;;;;;;;3.15;100.00;96736.59;10371071;28;20213;-67
2023/05/16 22:36:53;;;;;;;7.17;2.37;;;;;;;3.00;100.00;96745.44;10371062;28;20197;-67
2023/05/16 22:41:53;;;;;;;5.60;2.10;;;;;;;3.05;100.00;96753.72;10370614;28;20255;-67
2023/05/16 22:46:53;;;;;;;8.77;2.80;;;;;;;2.80;100.00;96760.63;10370682;28;20197;-68
2023/05/16 22:51:54;;;;;;;3.80;2.13;;;;;;;2.79;100.00;96764.13;10370396;28;20245;-68
2023/05/16 22:56:54;;;;;;;3.87;2.37;;;;;;;2.76;100.00;96769.53;10370218;28;20239;-68
2023/05/16 23:01:55;;;;;;;13.20;2.53;;;;;;;2.78;100.00;96780.59;10370328;28;20228;-67
2023/05/16 23:06:55;;;;;;;8.10;2.80;;;;;;;2.80;100.00;96778.72;10369026;28;20216;-68